sensor_id;sensor_type;location;lat;lon;timestamp;P1;durP1;ratioP1;P2;durP2;ratioP2
25868;SDS011;13688;53.154;18.136;2022-07-23T00:04:26;8.43;;;7.62;;
25868;SDS011;13688;53.154;18.136;2022-07-23T00:09:50;9.03;;;7.93;;
25868;SDS011;13688;53.154;18.136;2022-07-23T00:15:13;8.50;;;7.70;;
25868;SDS011;13688;53.154;18.136;2022-07-23T00:20:35;9.57;;;8.40;;
25868;SDS011;13688;53.154;18.136;2022-07-23T00:25:57;9.95;;;8.83;;
25868;SDS011;13688;53.154;18.136;2022-07-23T00:31:20;10.40;;;9.40;;
25868;SDS011;13688;53.154;18.136;2022-07-23T00:36:42;9.73;;;8.30;;
25868;SDS011;13688;53.154;18.136;2022-07-23T00:42:04;10.97;;;8.53;;
25868;SDS011;13688;53.154;18.136;2022-07-23T00:47:26;9.87;;;8.87;;
25868;SDS011;13688;53.154;18.136;2022-07-23T00:52:49;9.88;;;8.88;;
25868;SDS011;13688;53.154;18.136;2022-07-23T00:58:13;10.87;;;9.50;;
25868;SDS011;13688;53.154;18.136;2022-07-23T01:03:36;11.60;;;10.40;;
25868;SDS011;13688;53.154;18.136;2022-07-23T01:08:59;12.27;;;9.80;;
25868;SDS011;13688;53.154;18.136;2022-07-23T01:14:21;11.40;;;10.20;;
25868;SDS011;13688;53.154;18.136;2022-07-23T01:19:44;11.97;;;10.53;;
25868;SDS011;13688;53.154;18.136;2022-07-23T01:25:07;10.50;;;9.33;;
25868;SDS011;13688;53.154;18.136;2022-07-23T01:30:30;10.93;;;9.67;;
25868;SDS011;13688;53.154;18.136;2022-07-23T01:35:42;10.63;;;9.63;;
25868;SDS011;13688;53.154;18.136;2022-07-23T01:40:59;13.97;;;9.43;;
25868;SDS011;13688;53.154;18.136;2022-07-23T01:46:09;12.13;;;10.50;;
25868;SDS011;13688;53.154;18.136;2022-07-23T01:51:35;12.77;;;11.47;;
25868;SDS011;13688;53.154;18.136;2022-07-23T01:57:03;13.67;;;11.23;;
25868;SDS011;13688;53.154;18.136;2022-07-23T02:02:28;13.33;;;11.00;;
25868;SDS011;13688;53.154;18.136;2022-07-23T02:07:50;13.05;;;11.75;;
25868;SDS011;13688;53.154;18.136;2022-07-23T02:13:14;13.38;;;11.97;;
25868;SDS011;13688;53.154;18.136;2022-07-23T02:18:36;14.33;;;11.73;;
25868;SDS011;13688;53.154;18.136;2022-07-23T02:23:59;14.53;;;12.25;;
25868;SDS011;13688;53.154;18.136;2022-07-23T02:29:22;14.20;;;12.30;;
25868;SDS011;13688;53.154;18.136;2022-07-23T02:34:44;13.90;;;12.60;;
25868;SDS011;13688;53.154;18.136;2022-07-23T02:40:07;13.73;;;12.33;;
25868;SDS011;13688;53.154;18.136;2022-07-23T02:45:30;12.37;;;11.13;;
25868;SDS011;13688;53.154;18.136;2022-07-23T02:50:52;13.00;;;11.50;;
25868;SDS011;13688;53.154;18.136;2022-07-23T02:56:16;14.07;;;12.43;;
25868;SDS011;13688;53.154;18.136;2022-07-23T03:01:39;14.10;;;12.20;;
25868;SDS011;13688;53.154;18.136;2022-07-23T03:07:02;15.65;;;12.95;;
25868;SDS011;13688;53.154;18.136;2022-07-23T03:12:24;14.07;;;12.58;;
25868;SDS011;13688;53.154;18.136;2022-07-23T03:17:47;14.83;;;13.28;;
25868;SDS011;13688;53.154;18.136;2022-07-23T03:23:10;13.45;;;12.05;;
25868;SDS011;13688;53.154;18.136;2022-07-23T03:28:33;20.23;;;16.13;;
25868;SDS011;13688;53.154;18.136;2022-07-23T03:33:56;20.27;;;16.93;;
25868;SDS011;13688;53.154;18.136;2022-07-23T03:39:18;19.10;;;17.10;;
25868;SDS011;13688;53.154;18.136;2022-07-23T03:44:42;15.20;;;13.60;;
25868;SDS011;13688;53.154;18.136;2022-07-23T03:50:05;16.20;;;14.50;;
25868;SDS011;13688;53.154;18.136;2022-07-23T03:55:28;15.17;;;13.63;;
25868;SDS011;13688;53.154;18.136;2022-07-23T04:00:50;17.33;;;15.53;;
25868;SDS011;13688;53.154;18.136;2022-07-23T04:06:13;19.27;;;16.47;;
25868;SDS011;13688;53.154;18.136;2022-07-23T04:11:36;16.50;;;14.80;;
25868;SDS011;13688;53.154;18.136;2022-07-23T04:16:58;17.53;;;15.63;;
25868;SDS011;13688;53.154;18.136;2022-07-23T04:22:21;16.30;;;14.70;;
25868;SDS011;13688;53.154;18.136;2022-07-23T04:27:43;19.35;;;17.35;;
25868;SDS011;13688;53.154;18.136;2022-07-23T04:33:06;17.10;;;15.38;;
25868;SDS011;13688;53.154;18.136;2022-07-23T04:38:28;21.25;;;18.92;;
25868;SDS011;13688;53.154;18.136;2022-07-23T04:43:52;19.80;;;17.77;;
25868;SDS011;13688;53.154;18.136;2022-07-23T04:49:14;73.55;;;61.70;;
25868;SDS011;13688;53.154;18.136;2022-07-23T04:54:37;23.07;;;20.00;;
25868;SDS011;13688;53.154;18.136;2022-07-23T04:59:59;23.53;;;20.80;;
25868;SDS011;13688;53.154;18.136;2022-07-23T05:05:23;22.75;;;20.37;;
25868;SDS011;13688;53.154;18.136;2022-07-23T05:10:45;23.77;;;20.87;;
25868;SDS011;13688;53.154;18.136;2022-07-23T05:16:07;20.88;;;18.50;;
25868;SDS011;13688;53.154;18.136;2022-07-23T05:21:30;21.30;;;18.67;;
25868;SDS011;13688;53.154;18.136;2022-07-23T05:26:53;20.47;;;18.30;;
25868;SDS011;13688;53.154;18.136;2022-07-23T05:32:15;22.70;;;20.08;;
25868;SDS011;13688;53.154;18.136;2022-07-23T05:37:39;18.87;;;16.87;;
25868;SDS011;13688;53.154;18.136;2022-07-23T05:43:01;20.77;;;17.10;;
25868;SDS011;13688;53.154;18.136;2022-07-23T05:48:24;20.40;;;16.60;;
25868;SDS011;13688;53.154;18.136;2022-07-23T05:53:49;18.30;;;16.33;;
25868;SDS011;13688;53.154;18.136;2022-07-23T05:59:11;15.50;;;13.43;;
25868;SDS011;13688;53.154;18.136;2022-07-23T06:04:34;16.55;;;13.18;;
25868;SDS011;13688;53.154;18.136;2022-07-23T06:09:57;15.00;;;12.80;;
25868;SDS011;13688;53.154;18.136;2022-07-23T06:15:20;18.67;;;13.98;;
25868;SDS011;13688;53.154;18.136;2022-07-23T06:20:42;17.80;;;13.30;;
25868;SDS011;13688;53.154;18.136;2022-07-23T06:26:07;14.70;;;13.17;;
25868;SDS011;13688;53.154;18.136;2022-07-23T06:31:30;13.83;;;12.17;;
25868;SDS011;13688;53.154;18.136;2022-07-23T06:36:53;13.83;;;11.50;;
25868;SDS011;13688;53.154;18.136;2022-07-23T06:42:17;13.73;;;10.37;;
25868;SDS011;13688;53.154;18.136;2022-07-23T06:47:54;15.57;;;11.87;;
25868;SDS011;13688;53.154;18.136;2022-07-23T06:53:17;12.27;;;10.97;;
25868;SDS011;13688;53.154;18.136;2022-07-23T06:58:39;12.67;;;10.43;;
25868;SDS011;13688;53.154;18.136;2022-07-23T07:04:03;11.73;;;9.53;;
25868;SDS011;13688;53.154;18.136;2022-07-23T07:09:25;12.17;;;8.73;;
25868;SDS011;13688;53.154;18.136;2022-07-23T07:14:50;15.43;;;9.00;;
25868;SDS011;13688;53.154;18.136;2022-07-23T07:20:15;10.35;;;8.30;;
25868;SDS011;13688;53.154;18.136;2022-07-23T07:25:39;10.30;;;9.00;;
25868;SDS011;13688;53.154;18.136;2022-07-23T07:31:01;15.05;;;8.73;;
25868;SDS011;13688;53.154;18.136;2022-07-23T07:36:24;10.73;;;8.50;;
25868;SDS011;13688;53.154;18.136;2022-07-23T07:41:47;15.53;;;10.27;;
25868;SDS011;13688;53.154;18.136;2022-07-23T07:47:10;11.00;;;9.90;;
25868;SDS011;13688;53.154;18.136;2022-07-23T07:52:35;11.95;;;9.70;;
25868;SDS011;13688;53.154;18.136;2022-07-23T07:57:58;11.33;;;10.20;;
25868;SDS011;13688;53.154;18.136;2022-07-23T08:03:21;10.95;;;9.85;;
25868;SDS011;13688;53.154;18.136;2022-07-23T08:08:45;11.03;;;9.63;;
25868;SDS011;13688;53.154;18.136;2022-07-23T08:14:09;10.60;;;9.30;;
25868;SDS011;13688;53.154;18.136;2022-07-23T08:19:31;10.00;;;8.83;;
25868;SDS011;13688;53.154;18.136;2022-07-23T08:24:55;9.93;;;8.93;;
25868;SDS011;13688;53.154;18.136;2022-07-23T08:30:18;8.95;;;7.95;;
25868;SDS011;13688;53.154;18.136;2022-07-23T08:35:43;9.40;;;8.40;;
25868;SDS011;13688;53.154;18.136;2022-07-23T08:41:08;8.50;;;7.65;;
25868;SDS011;13688;53.154;18.136;2022-07-23T08:46:33;6.90;;;6.10;;
25868;SDS011;13688;53.154;18.136;2022-07-23T08:51:57;9.00;;;6.03;;
25868;SDS011;13688;53.154;18.136;2022-07-23T08:57:20;6.53;;;5.40;;
25868;SDS011;13688;53.154;18.136;2022-07-23T09:02:43;6.78;;;4.30;;
25868;SDS011;13688;53.154;18.136;2022-07-23T09:08:07;5.22;;;4.12;;
25868;SDS011;13688;53.154;18.136;2022-07-23T09:13:34;4.28;;;3.87;;
25868;SDS011;13688;53.154;18.136;2022-07-23T09:19:02;5.28;;;4.78;;
25868;SDS011;13688;53.154;18.136;2022-07-23T09:24:26;6.23;;;5.23;;
25868;SDS011;13688;53.154;18.136;2022-07-23T09:29:55;6.20;;;5.70;;
25868;SDS011;13688;53.154;18.136;2022-07-23T09:35:13;6.50;;;5.80;;
25868;SDS011;13688;53.154;18.136;2022-07-23T09:40:38;6.45;;;5.42;;
25868;SDS011;13688;53.154;18.136;2022-07-23T09:46:28;8.20;;;5.83;;
25868;SDS011;13688;53.154;18.136;2022-07-23T09:51:54;9.78;;;6.10;;
25868;SDS011;13688;53.154;18.136;2022-07-23T09:57:18;7.40;;;6.08;;
25868;SDS011;13688;53.154;18.136;2022-07-23T10:02:43;9.38;;;7.33;;
25868;SDS011;13688;53.154;18.136;2022-07-23T10:08:08;8.70;;;7.35;;
25868;SDS011;13688;53.154;18.136;2022-07-23T10:13:34;8.35;;;7.03;;
25868;SDS011;13688;53.154;18.136;2022-07-23T10:19:10;7.37;;;6.57;;
25868;SDS011;13688;53.154;18.136;2022-07-23T10:24:44;8.83;;;7.77;;
25868;SDS011;13688;53.154;18.136;2022-07-23T10:36:49;9.33;;;7.20;;
25868;SDS011;13688;53.154;18.136;2022-07-23T10:42:29;9.00;;;6.67;;
25868;SDS011;13688;53.154;18.136;2022-07-23T10:47:56;8.10;;;7.30;;
25868;SDS011;13688;53.154;18.136;2022-07-23T10:59:15;9.47;;;8.47;;
25868;SDS011;13688;53.154;18.136;2022-07-23T11:04:48;9.60;;;8.60;;
25868;SDS011;13688;53.154;18.136;2022-07-23T11:10:32;9.93;;;8.45;;
25868;SDS011;13688;53.154;18.136;2022-07-23T11:27:02;10.43;;;8.97;;
25868;SDS011;13688;53.154;18.136;2022-07-23T11:32:27;9.50;;;7.95;;
25868;SDS011;13688;53.154;18.136;2022-07-23T11:37:50;8.83;;;7.30;;
25868;SDS011;13688;53.154;18.136;2022-07-23T11:43:25;7.17;;;6.47;;
25868;SDS011;13688;53.154;18.136;2022-07-23T11:49:00;8.03;;;6.40;;
25868;SDS011;13688;53.154;18.136;2022-07-23T11:54:18;8.03;;;5.97;;
25868;SDS011;13688;53.154;18.136;2022-07-23T11:59:43;7.05;;;6.15;;
25868;SDS011;13688;53.154;18.136;2022-07-23T12:10:36;7.80;;;5.75;;
25868;SDS011;13688;53.154;18.136;2022-07-23T12:16:00;6.60;;;5.83;;
25868;SDS011;13688;53.154;18.136;2022-07-23T12:21:25;6.65;;;5.87;;
25868;SDS011;13688;53.154;18.136;2022-07-23T12:32:33;7.25;;;6.55;;
25868;SDS011;13688;53.154;18.136;2022-07-23T12:38:00;8.33;;;6.90;;
25868;SDS011;13688;53.154;18.136;2022-07-23T12:43:33;7.53;;;6.42;;
25868;SDS011;13688;53.154;18.136;2022-07-23T12:48:57;8.68;;;6.55;;
25868;SDS011;13688;53.154;18.136;2022-07-23T12:54:27;8.83;;;6.47;;
25868;SDS011;13688;53.154;18.136;2022-07-23T12:59:46;7.83;;;6.55;;
25868;SDS011;13688;53.154;18.136;2022-07-23T13:05:19;7.13;;;6.43;;
25868;SDS011;13688;53.154;18.136;2022-07-23T13:10:42;6.78;;;6.08;;
25868;SDS011;13688;53.154;18.136;2022-07-23T13:16:05;6.30;;;5.70;;
25868;SDS011;13688;53.154;18.136;2022-07-23T13:21:30;6.73;;;5.97;;
25868;SDS011;13688;53.154;18.136;2022-07-23T13:26:52;7.53;;;6.63;;
25868;SDS011;13688;53.154;18.136;2022-07-23T13:32:15;7.58;;;5.95;;
25868;SDS011;13688;53.154;18.136;2022-07-23T13:37:38;7.12;;;6.15;;
25868;SDS011;13688;53.154;18.136;2022-07-23T13:43:07;6.92;;;6.22;;
25868;SDS011;13688;53.154;18.136;2022-07-23T13:48:34;9.77;;;6.20;;
25868;SDS011;13688;53.154;18.136;2022-07-23T13:53:57;6.50;;;5.50;;
25868;SDS011;13688;53.154;18.136;2022-07-23T13:59:20;7.97;;;5.87;;
25868;SDS011;13688;53.154;18.136;2022-07-23T14:04:42;5.77;;;5.07;;
25868;SDS011;13688;53.154;18.136;2022-07-23T14:10:07;5.80;;;5.05;;
25868;SDS011;13688;53.154;18.136;2022-07-23T14:15:30;7.20;;;4.55;;
25868;SDS011;13688;53.154;18.136;2022-07-23T14:20:54;5.03;;;4.58;;
25868;SDS011;13688;53.154;18.136;2022-07-23T14:26:17;4.78;;;4.28;;
25868;SDS011;13688;53.154;18.136;2022-07-23T14:31:40;6.72;;;4.90;;
25868;SDS011;13688;53.154;18.136;2022-07-23T14:37:04;5.12;;;4.60;;
25868;SDS011;13688;53.154;18.136;2022-07-23T14:42:28;5.28;;;4.60;;
25868;SDS011;13688;53.154;18.136;2022-07-23T14:47:51;6.78;;;4.67;;
25868;SDS011;13688;53.154;18.136;2022-07-23T14:53:16;5.33;;;4.55;;
25868;SDS011;13688;53.154;18.136;2022-07-23T14:58:38;8.28;;;4.60;;
25868;SDS011;13688;53.154;18.136;2022-07-23T15:04:02;6.03;;;4.83;;
25868;SDS011;13688;53.154;18.136;2022-07-23T15:09:26;5.95;;;4.58;;
25868;SDS011;13688;53.154;18.136;2022-07-23T15:14:50;6.12;;;4.70;;
25868;SDS011;13688;53.154;18.136;2022-07-23T15:20:13;6.12;;;5.00;;
25868;SDS011;13688;53.154;18.136;2022-07-23T15:25:38;5.92;;;4.20;;
25868;SDS011;13688;53.154;18.136;2022-07-23T15:31:01;8.43;;;5.00;;
25868;SDS011;13688;53.154;18.136;2022-07-23T15:36:24;5.90;;;4.47;;
25868;SDS011;13688;53.154;18.136;2022-07-23T15:41:46;6.83;;;4.55;;
25868;SDS011;13688;53.154;18.136;2022-07-23T15:47:13;7.05;;;5.65;;
25868;SDS011;13688;53.154;18.136;2022-07-23T15:52:36;8.23;;;5.87;;
25868;SDS011;13688;53.154;18.136;2022-07-23T15:58:00;7.50;;;6.00;;
25868;SDS011;13688;53.154;18.136;2022-07-23T16:03:24;6.08;;;5.50;;
25868;SDS011;13688;53.154;18.136;2022-07-23T16:08:49;6.67;;;5.70;;
25868;SDS011;13688;53.154;18.136;2022-07-23T16:14:13;8.28;;;5.55;;
25868;SDS011;13688;53.154;18.136;2022-07-23T16:19:36;6.85;;;6.08;;
25868;SDS011;13688;53.154;18.136;2022-07-23T16:24:59;6.15;;;5.55;;
25868;SDS011;13688;53.154;18.136;2022-07-23T16:30:23;7.93;;;6.43;;
25868;SDS011;13688;53.154;18.136;2022-07-23T16:35:46;10.65;;;6.25;;
25868;SDS011;13688;53.154;18.136;2022-07-23T16:41:08;9.58;;;5.65;;
25868;SDS011;13688;53.154;18.136;2022-07-23T16:46:31;6.40;;;5.53;;
25868;SDS011;13688;53.154;18.136;2022-07-23T16:51:55;5.83;;;5.12;;
25868;SDS011;13688;53.154;18.136;2022-07-23T16:57:18;7.85;;;6.12;;
25868;SDS011;13688;53.154;18.136;2022-07-23T17:02:41;9.08;;;6.10;;
25868;SDS011;13688;53.154;18.136;2022-07-23T17:08:05;7.30;;;6.50;;
25868;SDS011;13688;53.154;18.136;2022-07-23T17:13:29;9.25;;;6.70;;
25868;SDS011;13688;53.154;18.136;2022-07-23T17:18:52;12.10;;;7.10;;
25868;SDS011;13688;53.154;18.136;2022-07-23T17:24:15;9.33;;;7.83;;
25868;SDS011;13688;53.154;18.136;2022-07-23T17:29:38;8.85;;;7.20;;
25868;SDS011;13688;53.154;18.136;2022-07-23T17:35:02;9.15;;;7.60;;
25868;SDS011;13688;53.154;18.136;2022-07-23T17:40:24;8.43;;;6.47;;
25868;SDS011;13688;53.154;18.136;2022-07-23T17:45:47;9.90;;;7.10;;
25868;SDS011;13688;53.154;18.136;2022-07-23T17:51:10;8.78;;;6.85;;
25868;SDS011;13688;53.154;18.136;2022-07-23T17:56:33;8.07;;;6.90;;
25868;SDS011;13688;53.154;18.136;2022-07-23T18:01:56;11.40;;;8.18;;
25868;SDS011;13688;53.154;18.136;2022-07-23T18:07:19;7.60;;;6.72;;
25868;SDS011;13688;53.154;18.136;2022-07-23T18:12:42;8.03;;;7.23;;
25868;SDS011;13688;53.154;18.136;2022-07-23T18:18:04;8.20;;;5.60;;
25868;SDS011;13688;53.154;18.136;2022-07-23T18:23:26;9.17;;;5.83;;
25868;SDS011;13688;53.154;18.136;2022-07-23T18:28:49;9.53;;;6.50;;
25868;SDS011;13688;53.154;18.136;2022-07-23T18:34:12;9.77;;;6.27;;
25868;SDS011;13688;53.154;18.136;2022-07-23T18:39:36;8.35;;;6.28;;
25868;SDS011;13688;53.154;18.136;2022-07-23T18:44:59;9.68;;;7.25;;
25868;SDS011;13688;53.154;18.136;2022-07-23T18:50:23;8.60;;;6.70;;
25868;SDS011;13688;53.154;18.136;2022-07-23T18:55:46;11.13;;;9.97;;
25868;SDS011;13688;53.154;18.136;2022-07-23T19:01:08;8.80;;;6.58;;
25868;SDS011;13688;53.154;18.136;2022-07-23T19:06:33;8.45;;;7.22;;
25868;SDS011;13688;53.154;18.136;2022-07-23T19:11:58;9.23;;;7.20;;
25868;SDS011;13688;53.154;18.136;2022-07-23T19:17:20;11.03;;;7.23;;
25868;SDS011;13688;53.154;18.136;2022-07-23T19:22:43;7.83;;;6.62;;
25868;SDS011;13688;53.154;18.136;2022-07-23T19:28:05;8.87;;;6.50;;
25868;SDS011;13688;53.154;18.136;2022-07-23T19:33:28;7.47;;;5.97;;
25868;SDS011;13688;53.154;18.136;2022-07-23T19:38:52;8.98;;;6.17;;
25868;SDS011;13688;53.154;18.136;2022-07-23T19:44:15;8.78;;;5.10;;
25868;SDS011;13688;53.154;18.136;2022-07-23T19:49:37;9.35;;;4.65;;
25868;SDS011;13688;53.154;18.136;2022-07-23T19:54:59;8.30;;;4.33;;
25868;SDS011;13688;53.154;18.136;2022-07-23T20:00:23;8.43;;;4.78;;
25868;SDS011;13688;53.154;18.136;2022-07-23T20:05:48;7.12;;;3.45;;
25868;SDS011;13688;53.154;18.136;2022-07-23T20:11:11;6.65;;;3.35;;
25868;SDS011;13688;53.154;18.136;2022-07-23T20:16:34;21.52;;;14.00;;
25868;SDS011;13688;53.154;18.136;2022-07-23T20:21:57;7.67;;;3.67;;
25868;SDS011;13688;53.154;18.136;2022-07-23T20:27:19;5.22;;;3.08;;
25868;SDS011;13688;53.154;18.136;2022-07-23T20:32:41;4.42;;;2.75;;
25868;SDS011;13688;53.154;18.136;2022-07-23T20:38:04;7.40;;;3.80;;
25868;SDS011;13688;53.154;18.136;2022-07-23T20:43:26;5.62;;;2.83;;
25868;SDS011;13688;53.154;18.136;2022-07-23T20:48:48;4.15;;;2.90;;
25868;SDS011;13688;53.154;18.136;2022-07-23T20:54:12;4.83;;;2.17;;
25868;SDS011;13688;53.154;18.136;2022-07-23T20:59:34;4.22;;;2.35;;
25868;SDS011;13688;53.154;18.136;2022-07-23T21:04:57;4.15;;;1.77;;
25868;SDS011;13688;53.154;18.136;2022-07-23T21:10:20;3.12;;;1.62;;
25868;SDS011;13688;53.154;18.136;2022-07-23T21:15:42;7.28;;;1.90;;
25868;SDS011;13688;53.154;18.136;2022-07-23T21:21:05;5.10;;;2.05;;
25868;SDS011;13688;53.154;18.136;2022-07-23T21:26:28;2.60;;;1.80;;
25868;SDS011;13688;53.154;18.136;2022-07-23T21:31:53;2.50;;;1.80;;
25868;SDS011;13688;53.154;18.136;2022-07-23T21:37:15;8.23;;;1.80;;
25868;SDS011;13688;53.154;18.136;2022-07-23T21:42:37;4.30;;;1.60;;
25868;SDS011;13688;53.154;18.136;2022-07-23T21:48:00;2.25;;;1.70;;
25868;SDS011;13688;53.154;18.136;2022-07-23T21:53:23;4.75;;;1.82;;
25868;SDS011;13688;53.154;18.136;2022-07-23T21:58:46;2.70;;;1.90;;
25868;SDS011;13688;53.154;18.136;2022-07-23T22:04:09;1.70;;;1.60;;
25868;SDS011;13688;53.154;18.136;2022-07-23T22:09:31;2.92;;;1.67;;
25868;SDS011;13688;53.154;18.136;2022-07-23T22:14:54;5.87;;;1.77;;
25868;SDS011;13688;53.154;18.136;2022-07-23T22:20:19;2.70;;;1.72;;
25868;SDS011;13688;53.154;18.136;2022-07-23T22:25:41;6.67;;;1.50;;
25868;SDS011;13688;53.154;18.136;2022-07-23T22:31:04;6.78;;;2.05;;
25868;SDS011;13688;53.154;18.136;2022-07-23T22:36:27;2.85;;;1.50;;
25868;SDS011;13688;53.154;18.136;2022-07-23T22:41:49;4.15;;;1.90;;
25868;SDS011;13688;53.154;18.136;2022-07-23T22:47:12;4.50;;;1.40;;
25868;SDS011;13688;53.154;18.136;2022-07-23T22:52:36;3.33;;;1.80;;
25868;SDS011;13688;53.154;18.136;2022-07-23T22:57:58;4.85;;;1.95;;
25868;SDS011;13688;53.154;18.136;2022-07-23T23:03:21;4.65;;;1.85;;
25868;SDS011;13688;53.154;18.136;2022-07-23T23:08:43;2.52;;;1.67;;
25868;SDS011;13688;53.154;18.136;2022-07-23T23:14:07;4.22;;;1.70;;
25868;SDS011;13688;53.154;18.136;2022-07-23T23:19:30;5.33;;;1.55;;
25868;SDS011;13688;53.154;18.136;2022-07-23T23:24:53;2.98;;;1.80;;
25868;SDS011;13688;53.154;18.136;2022-07-23T23:30:15;3.02;;;1.90;;
25868;SDS011;13688;53.154;18.136;2022-07-23T23:35:38;2.42;;;1.80;;
25868;SDS011;13688;53.154;18.136;2022-07-23T23:41:00;2.95;;;2.02;;
25868;SDS011;13688;53.154;18.136;2022-07-23T23:46:23;2.92;;;1.92;;
25868;SDS011;13688;53.154;18.136;2022-07-23T23:51:45;7.55;;;2.00;;
25868;SDS011;13688;53.154;18.136;2022-07-23T23:57:08;4.92;;;2.10;;
